Time;durP1;ratioP1;P1;durP2;ratioP2;P2;SDS_P1;SDS_P2;PMS_P1;PMS_P2;Temp;Humidity;BMP_temperature;BMP_pressure;BME280_temperature;BME280_humidity;BME280_pressure;Samples;Min_cycle;Max_cycle;Signal;HPM_P1;HPM_P2
2023/02/27 00:01:55;;;;;;;6.07;2.58;;;;;;;-2.49;100.00;102101.63;5093956;28;20055;-81
2023/02/27 00:04:33;;;;;;;3.50;2.17;;;;;;;-2.51;100.00;102100.66;5098150;28;20036;-78
2023/02/27 00:06:59;;;;;;;5.45;3.45;;;;;;;-2.53;100.00;102095.44;5087579;28;20039;-82
2023/02/27 00:09:27;;;;;;;3.95;2.25;;;;;;;-2.51;100.00;102104.09;5090292;28;20497;-83
2023/02/27 00:11:54;;;;;;;5.25;3.05;;;;;;;-2.52;100.00;102097.19;5087632;28;20044;-79
2023/02/27 00:14:21;;;;;;;5.13;2.35;;;;;;;-2.57;100.00;102090.91;5088048;28;20035;-77
2023/02/27 00:16:47;;;;;;;5.60;2.15;;;;;;;-2.58;100.00;102099.38;5097609;28;20497;-77
2023/02/27 00:19:14;;;;;;;5.38;2.92;;;;;;;-2.64;100.00;102100.63;5104377;28;20052;-78
2023/02/27 00:21:43;;;;;;;4.82;2.80;;;;;;;-2.67;100.00;102099.63;5085794;28;20040;-78
2023/02/27 00:24:10;;;;;;;8.18;4.53;;;;;;;-2.66;100.00;102103.97;5100264;28;20044;-80
2023/02/27 00:26:37;;;;;;;3.88;2.92;;;;;;;-2.64;100.00;102100.63;5099967;28;20043;-81
2023/02/27 00:29:05;;;;;;;4.35;2.83;;;;;;;-2.68;100.00;102107.22;5101562;28;20054;-79
2023/02/27 00:31:32;;;;;;;4.00;2.47;;;;;;;-2.70;100.00;102108.78;5075986;28;20106;-81
2023/02/27 00:33:58;;;;;;;5.07;2.90;;;;;;;-2.71;100.00;102101.84;5087976;28;20066;-80
2023/02/27 00:36:25;;;;;;;3.70;2.33;;;;;;;-2.72;100.00;102098.41;5091548;28;20084;-79
2023/02/27 00:38:52;;;;;;;8.05;2.80;;;;;;;-2.73;100.00;102106.00;5099372;28;20044;-81
2023/02/27 00:41:18;;;;;;;5.03;2.72;;;;;;;-2.78;100.00;102103.13;5098126;28;20041;-78
2023/02/27 00:43:48;;;;;;;4.63;2.75;;;;;;;-2.79;100.00;102103.00;5104955;28;20038;-84
2023/02/27 00:46:14;;;;;;;5.28;3.42;;;;;;;-2.85;100.00;102094.13;5100039;28;20846;-81
2023/02/27 00:48:41;;;;;;;4.85;2.83;;;;;;;-2.88;100.00;102098.13;5106292;28;20036;-78
2023/02/27 00:51:07;;;;;;;5.57;3.25;;;;;;;-2.93;100.00;102095.28;5104405;28;20039;-78
2023/02/27 00:53:34;;;;;;;5.25;3.35;;;;;;;-2.96;100.00;102091.59;5101022;28;20111;-79
2023/02/27 00:56:00;;;;;;;5.57;2.75;;;;;;;-3.02;100.00;102098.09;5096697;28;20059;-83
2023/02/27 00:58:27;;;;;;;4.43;3.75;;;;;;;-3.07;100.00;102094.31;5108290;28;20058;-80
2023/02/27 01:00:53;;;;;;;8.02;2.97;;;;;;;-3.10;100.00;102095.75;5091187;28;20071;-79
2023/02/27 01:03:20;;;;;;;3.72;2.90;;;;;;;-3.14;100.00;102096.34;5089483;28;20553;-82
2023/02/27 01:05:46;;;;;;;7.82;3.03;;;;;;;-3.19;100.00;102106.28;5099548;28;20036;-78
2023/02/27 01:08:13;;;;;;;4.78;2.60;;;;;;;-3.25;100.00;102110.97;5088739;28;20089;-79
2023/02/27 01:10:39;;;;;;;13.07;2.95;;;;;;;-3.32;100.00;102101.94;5108287;28;20044;-77
2023/02/27 01:13:07;;;;;;;3.88;2.78;;;;;;;-3.34;100.00;102101.84;5086734;28;20036;-78
2023/02/27 01:15:34;;;;;;;5.10;2.72;;;;;;;-3.35;100.00;102106.84;5108662;28;20081;-78
2023/02/27 01:18:01;;;;;;;5.35;2.80;;;;;;;-3.36;100.00;102105.97;5108242;28;20040;-78
2023/02/27 01:20:27;;;;;;;9.18;3.25;;;;;;;-3.34;100.00;102106.06;5090611;28;20497;-77
2023/02/27 01:22:54;;;;;;;8.50;3.42;;;;;;;-3.32;100.00;102105.38;5105088;28;20048;-78
2023/02/27 01:25:20;;;;;;;6.95;2.80;;;;;;;-3.30;100.00;102095.25;5097893;28;20046;-81
2023/02/27 01:27:47;;;;;;;6.20;3.30;;;;;;;-3.29;100.00;102097.03;5104885;28;20043;-80
2023/02/27 01:30:15;;;;;;;3.72;2.30;;;;;;;-3.34;100.00;102096.72;5096456;28;20451;-77
2023/02/27 01:32:42;;;;;;;7.47;2.60;;;;;;;-3.36;100.00;102098.28;5098103;28;20035;-79
2023/02/27 01:35:08;;;;;;;7.63;3.80;;;;;;;-3.38;100.00;102093.81;5105892;28;20074;-81
2023/02/27 01:37:35;;;;;;;10.23;4.28;;;;;;;-3.37;100.00;102088.81;5109249;27;20046;-80
2023/02/27 01:40:03;;;;;;;7.55;3.50;;;;;;;-3.38;100.00;102086.16;5103933;28;20040;-79
2023/02/27 01:42:29;;;;;;;3.58;2.72;;;;;;;-3.41;100.00;102091.94;5109185;28;20039;-79
2023/02/27 01:45:28;;;;;;;5.20;2.63;;;;;;;-3.38;100.00;102093.81;5109431;27;20112;-80
2023/02/27 01:48:16;;;;;;;9.25;3.55;;;;;;;-3.39;100.00;102092.03;5068827;28;20148;-80
2023/02/27 01:50:55;;;;;;;9.57;2.47;;;;;;;-3.38;100.00;102084.47;5106933;28;20045;-77
2023/02/27 01:53:24;;;;;;;3.65;2.95;;;;;;;-3.38;100.00;102091.28;5092271;28;20616;-80
2023/02/27 01:55:56;;;;;;;6.70;2.53;;;;;;;-3.36;100.00;102088.03;5104534;28;20047;-78
2023/02/27 01:58:22;;;;;;;7.03;3.13;;;;;;;-3.34;100.00;102090.69;5105982;28;20052;-76
2023/02/27 02:00:49;;;;;;;4.68;3.45;;;;;;;-3.33;100.00;102084.81;5081907;28;20044;-77
2023/02/27 02:03:57;;;;;;;6.50;3.28;;;;;;;-3.32;100.00;102094.28;5105212;28;20087;-78
2023/02/27 02:06:24;;;;;;;4.47;3.10;;;;;;;-3.34;100.00;102091.59;5108430;28;20131;-79
2023/02/27 02:08:53;;;;;;;5.10;2.53;;;;;;;-3.37;100.00;102090.50;5089155;28;20376;-76
2023/02/27 02:11:22;;;;;;;4.93;3.30;;;;;;;-3.40;100.00;102096.28;5108236;28;20055;-80
2023/02/27 02:13:51;;;;;;;3.40;2.35;;;;;;;-3.40;100.00;102085.13;5099712;28;20801;-81
2023/02/27 02:16:36;;;;;;;11.88;2.85;;;;;;;-3.45;100.00;102087.38;5089328;28;20043;-78
2023/02/27 02:19:53;;;;;;;5.90;2.88;;;;;;;-3.46;100.00;102084.72;5102003;28;20059;-79
2023/02/27 02:22:56;;;;;;;11.48;3.35;;;;;;;-3.48;100.00;102082.06;5108962;28;20046;-78
2023/02/27 02:25:37;;;;;;;6.57;3.20;;;;;;;-3.57;100.00;102084.84;5103514;28;20097;-77
2023/02/27 02:28:39;;;;;;;9.65;3.00;;;;;;;-3.59;100.00;102083.84;5102822;28;20093;-77
2023/02/27 02:31:39;;;;;;;6.53;2.70;;;;;;;-3.60;100.00;102088.84;5095996;28;20086;-79
2023/02/27 02:34:49;;;;;;;4.88;2.80;;;;;;;-3.63;100.00;102091.19;5113403;27;20097;-84
2023/02/27 02:37:52;;;;;;;2.20;2.00;;;;;;;-3.64;100.00;102080.06;5100157;28;20504;-78
2023/02/27 02:40:46;;;;;;;15.98;2.78;;;;;;;-3.60;100.00;102087.16;5101368;28;20115;-81
2023/02/27 02:43:32;;;;;;;3.80;3.40;;;;;;;-3.57;100.00;102081.38;5100533;28;20047;-79
2023/02/27 02:46:16;;;;;;;6.13;2.65;;;;;;;-3.59;100.00;102082.97;5097442;28;20064;-79
2023/02/27 02:49:07;;;;;;;6.70;2.63;;;;;;;-3.60;100.00;102083.72;5099177;27;20035;-78
2023/02/27 02:51:51;;;;;;;10.55;4.03;;;;;;;-3.61;100.00;102081.94;5103061;28;20047;-80
2023/02/27 02:54:32;;;;;;;7.10;3.05;;;;;;;-3.60;100.00;102081.16;5098570;28;20044;-77
2023/02/27 02:57:24;;;;;;;3.55;2.50;;;;;;;-3.63;100.00;102078.41;5087619;28;20363;-78
2023/02/27 03:00:03;;;;;;;3.80;2.50;;;;;;;-3.63;100.00;102078.41;5097913;28;20094;-78
2023/02/27 03:02:37;;;;;;;4.05;2.97;;;;;;;-3.64;100.00;102080.06;5104191;28;20043;-76
2023/02/27 03:05:13;;;;;;;5.03;2.95;;;;;;;-3.67;100.00;102075.59;5095194;28;20088;-76
2023/02/27 03:07:46;;;;;;;9.85;3.65;;;;;;;-3.65;100.00;102073.16;5099442;28;20047;-78
2023/02/27 03:10:21;;;;;;;7.53;3.25;;;;;;;-3.63;100.00;102083.53;5088767;28;20402;-80
2023/02/27 03:13:09;;;;;;;5.95;2.83;;;;;;;-3.62;100.00;102077.59;5071180;28;20482;-77
2023/02/27 03:15:45;;;;;;;6.20;2.88;;;;;;;-3.65;100.00;102088.50;5101450;28;20071;-81
2023/02/27 03:18:23;;;;;;;5.43;2.80;;;;;;;-3.68;100.00;102084.09;5095835;28;20032;-78
2023/02/27 03:20:58;;;;;;;7.75;3.28;;;;;;;-3.72;100.00;102088.84;5082761;28;20508;-80
2023/02/27 03:23:34;;;;;;;4.75;2.92;;;;;;;-3.76;100.00;102103.09;5076017;28;20044;-80
2023/02/27 03:26:01;;;;;;;10.48;4.00;;;;;;;-3.78;100.00;102103.75;5099046;28;20040;-76
2023/02/27 03:28:33;;;;;;;5.47;3.30;;;;;;;-3.78;100.00;102104.66;5100130;28;20036;-81
2023/02/27 03:31:08;;;;;;;7.70;4.30;;;;;;;-3.77;100.00;102113.22;5103956;27;20046;-84
2023/02/27 03:33:46;;;;;;;10.68;3.45;;;;;;;-3.83;100.00;102108.56;5120591;27;20488;-79
2023/02/27 03:36:31;;;;;;;6.30;3.20;;;;;;;-3.84;100.00;102107.66;5071654;28;20394;-79
2023/02/27 03:39:25;;;;;;;4.47;3.60;;;;;;;-3.88;100.00;102110.78;5101782;28;20051;-79
2023/02/27 03:42:06;;;;;;;5.82;2.78;;;;;;;-3.92;100.00;102108.78;5099162;28;20050;-79
2023/02/27 03:45:02;;;;;;;5.80;3.20;;;;;;;-3.91;100.00;102117.31;5115729;27;20046;-79
2023/02/27 03:47:30;;;;;;;5.15;3.67;;;;;;;-3.95;100.00;102118.78;5120183;27;20050;-80
2023/02/27 03:49:56;;;;;;;6.72;3.83;;;;;;;-3.94;100.00;102122.22;5104760;28;20044;-81
2023/02/27 03:52:24;;;;;;;7.47;3.35;;;;;;;-3.99;100.00;102117.66;5086763;28;20830;-78
2023/02/27 03:55:14;;;;;;;10.32;5.65;;;;;;;-3.99;100.00;102117.66;5097861;28;20089;-79
2023/02/27 03:57:41;;;;;;;5.70;3.17;;;;;;;-3.96;100.00;102116.09;5097564;28;20043;-79
2023/02/27 04:00:18;;;;;;;4.18;2.75;;;;;;;-3.93;100.00;102114.66;5084690;28;20411;-82
2023/02/27 04:02:50;;;;;;;6.97;3.00;;;;;;;-3.94;100.00;102114.56;5100876;28;20046;-80
2023/02/27 04:05:19;;;;;;;7.07;2.72;;;;;;;-3.93;100.00;102121.47;5096579;28;20143;-78
2023/02/27 04:08:12;;;;;;;5.57;2.78;;;;;;;-3.92;100.00;102125.81;5087558;28;20050;-79
2023/02/27 04:11:00;;;;;;;6.97;3.65;;;;;;;-3.94;100.00;102125.66;5102999;28;20078;-78
2023/02/27 04:14:11;;;;;;;8.07;3.50;;;;;;;-3.90;100.00;102127.66;5096822;28;20061;-78
2023/02/27 04:17:21;;;;;;;3.92;2.85;;;;;;;-3.93;100.00;102126.56;5104536;28;20520;-83
2023/02/27 04:20:17;;;;;;;5.28;3.22;;;;;;;-3.98;100.00;102128.78;5028839;28;20449;-78
2023/02/27 04:22:54;;;;;;;6.65;2.95;;;;;;;-3.95;100.00;102136.69;5041515;28;20484;-77
2023/02/27 04:26:16;;;;;;;8.83;3.27;;;;;;;-3.92;100.00;102134.34;5087749;28;20144;-80
2023/02/27 04:29:07;;;;;;;5.95;3.67;;;;;;;-3.94;100.00;102132.47;5079052;28;20135;-79
2023/02/27 04:31:56;;;;;;;6.25;2.35;;;;;;;-3.95;100.00;102139.25;5088554;28;20047;-80
2023/02/27 04:34:36;;;;;;;5.40;2.88;;;;;;;-3.95;100.00;102141.81;5100037;28;20047;-79
2023/02/27 04:37:13;;;;;;;5.47;2.97;;;;;;;-3.88;100.00;102143.16;5103340;28;20054;-79
2023/02/27 04:39:53;;;;;;;3.45;2.75;;;;;;;-3.79;100.00;102148.03;5104923;28;20036;-80
2023/02/27 04:42:25;;;;;;;4.00;2.72;;;;;;;-3.73;100.00;102151.97;5101680;28;20044;-79
2023/02/27 04:44:59;;;;;;;2.53;2.10;;;;;;;-3.61;100.00;102140.81;5099302;28;20127;-80
2023/02/27 04:47:32;;;;;;;5.32;2.63;;;;;;;-3.44;100.00;102140.38;5115868;27;20050;-80
2023/02/27 04:50:07;;;;;;;5.27;2.53;;;;;;;-3.29;100.00;102145.69;5103882;27;20367;-78
2023/02/27 04:53:04;;;;;;;5.03;2.63;;;;;;;-3.25;100.00;102149.38;5106459;28;20470;-81
2023/02/27 04:55:37;;;;;;;5.32;2.63;;;;;;;-3.28;100.00;102139.78;5106048;28;20046;-79
2023/02/27 04:58:14;;;;;;;8.93;2.83;;;;;;;-3.37;100.00;102151.94;5105284;28;20074;-78
2023/02/27 05:00:46;;;;;;;4.70;2.65;;;;;;;-3.52;100.00;102151.72;5087469;28;20044;-79
2023/02/27 05:03:19;;;;;;;6.05;2.85;;;;;;;-3.63;100.00;102153.50;5103540;28;20060;-80
2023/02/27 05:05:48;;;;;;;4.15;2.63;;;;;;;-3.72;100.00;102146.03;5109955;28;20078;-79
2023/02/27 05:08:27;;;;;;;9.20;2.60;;;;;;;-3.77;100.00;102154.16;5081671;28;20056;-79
2023/02/27 05:11:15;;;;;;;3.88;1.92;;;;;;;-3.85;100.00;102154.47;5102325;27;20048;-78
2023/02/27 05:13:49;;;;;;;3.05;2.33;;;;;;;-3.85;100.00;102157.03;5109113;28;20786;-78
2023/02/27 05:16:31;;;;;;;9.70;3.63;;;;;;;-3.74;100.00;102157.84;5100844;27;20113;-78
2023/02/27 05:19:00;;;;;;;4.72;2.05;;;;;;;-3.58;100.00;102166.66;5100360;28;20040;-78
2023/02/27 05:21:39;;;;;;;2.63;2.30;;;;;;;-3.41;100.00;102158.50;5100682;27;20044;-79
2023/02/27 05:24:40;;;;;;;5.50;2.53;;;;;;;-3.27;100.00;102163.72;5100672;27;20493;-84
2023/02/27 05:27:45;;;;;;;8.40;4.03;;;;;;;-3.18;100.00;102160.16;5104284;28;20060;-80
2023/02/27 05:30:31;;;;;;;12.25;4.55;;;;;;;-3.04;100.00;102167.94;5101536;28;20044;-78
2023/02/27 05:33:18;;;;;;;5.80;3.85;;;;;;;-2.91;100.00;102168.00;5100496;28;20090;-80
2023/02/27 05:35:53;;;;;;;9.45;4.90;;;;;;;-2.79;100.00;102168.00;5101482;28;20044;-79
2023/02/27 05:38:27;;;;;;;10.70;3.17;;;;;;;-2.68;100.00;102161.03;5111846;27;20040;-78
2023/02/27 05:41:24;;;;;;;10.02;4.03;;;;;;;-2.58;100.00;102166.03;5062910;28;20051;-77
2023/02/27 05:44:01;;;;;;;5.43;3.38;;;;;;;-2.46;100.00;102165.06;5102487;28;20044;-78
2023/02/27 05:46:34;;;;;;;4.63;3.40;;;;;;;-2.39;100.00;102157.03;5103975;28;20041;-80
2023/02/27 05:49:07;;;;;;;5.47;3.35;;;;;;;-2.39;100.00;102152.78;5097482;28;20043;-81
2023/02/27 05:51:37;;;;;;;5.07;3.10;;;;;;;-2.35;100.00;102159.00;5099885;28;20040;-78
2023/02/27 05:54:15;;;;;;;3.85;2.97;;;;;;;-2.31;100.00;102165.25;5100457;28;20078;-81
2023/02/27 05:56:45;;;;;;;6.93;3.72;;;;;;;-2.25;100.00;102171.66;5084104;28;20040;-78
2023/02/27 05:59:26;;;;;;;5.30;3.88;;;;;;;-2.18;100.00;102178.09;5101524;28;20084;-79
2023/02/27 06:01:55;;;;;;;6.72;3.95;;;;;;;-2.14;100.00;102177.50;5101008;28;20127;-81
2023/02/27 06:04:22;;;;;;;8.00;3.60;;;;;;;-2.09;100.00;102176.16;5103978;28;20043;-80
2023/02/27 06:06:48;;;;;;;6.20;3.20;;;;;;;-2.03;100.00;102183.38;5100705;28;20043;-79
2023/02/27 06:09:16;;;;;;;5.05;3.22;;;;;;;-2.02;100.00;102183.47;5116395;27;20040;-83
2023/02/27 06:11:42;;;;;;;3.67;3.38;;;;;;;-1.98;100.00;102192.28;5096584;28;20067;-82
2023/02/27 06:14:09;;;;;;;4.53;3.42;;;;;;;-1.94;100.00;102201.06;5081935;28;20131;-78
2023/02/27 06:16:36;;;;;;;6.18;3.17;;;;;;;-1.92;100.00;102200.38;5105239;28;20044;-79
2023/02/27 06:19:04;;;;;;;4.95;2.60;;;;;;;-1.87;100.00;102201.56;5071516;28;20067;-77
2023/02/27 06:21:31;;;;;;;5.38;3.33;;;;;;;-1.86;100.00;102193.09;5099599;27;20067;-83
2023/02/27 06:23:57;;;;;;;10.60;3.22;;;;;;;-1.83;100.00;102200.09;5119700;27;20048;-81
2023/02/27 06:26:24;;;;;;;7.05;3.58;;;;;;;-1.84;100.00;102206.03;5103141;28;20142;-79
2023/02/27 06:28:51;;;;;;;6.53;3.70;;;;;;;-1.84;100.00;102203.44;5095525;28;20045;-79
2023/02/27 06:31:17;;;;;;;4.80;2.83;;;;;;;-1.83;100.00;102213.81;5102858;27;20075;-80
2023/02/27 06:33:44;;;;;;;13.93;4.28;;;;;;;-1.83;100.00;102207.81;5088958;28;20182;-79
2023/02/27 06:36:10;;;;;;;6.00;2.92;;;;;;;-1.89;100.00;102204.81;5102103;27;20126;-81
2023/02/27 06:38:37;;;;;;;7.22;3.55;;;;;;;-1.92;100.00;102213.22;5084452;28;20670;-79
2023/02/27 06:41:03;;;;;;;5.93;3.83;;;;;;;-1.92;100.00;102205.50;5091387;28;20058;-79
2023/02/27 06:43:33;;;;;;;7.13;2.97;;;;;;;-1.95;100.00;102214.69;5089107;28;20497;-85
2023/02/27 06:46:00;;;;;;;4.18;3.60;;;;;;;-1.99;100.00;102208.47;5104391;28;20474;-79
2023/02/27 06:48:26;;;;;;;4.68;4.05;;;;;;;-1.97;100.00;102224.84;5101234;28;20055;-81
2023/02/27 06:50:55;;;;;;;7.82;4.55;;;;;;;-1.95;100.00;102219.84;5102168;27;20043;-81
2023/02/27 06:53:23;;;;;;;11.32;5.15;;;;;;;-1.91;100.00;102227.81;5123820;27;20036;-79
2023/02/27 06:55:49;;;;;;;13.25;4.15;;;;;;;-1.84;100.00;102224.00;5096266;28;20050;-82
2023/02/27 06:58:17;;;;;;;5.30;3.55;;;;;;;-1.76;100.00;102221.94;5100288;28;20119;-81
2023/02/27 07:00:43;;;;;;;9.23;2.83;;;;;;;-1.71;100.00;102228.25;5087556;28;20081;-82
2023/02/27 07:03:10;;;;;;;4.07;3.03;;;;;;;-1.65;100.00;102228.69;5102989;28;20518;-79
2023/02/27 07:05:37;;;;;;;11.68;3.58;;;;;;;-1.58;100.00;102229.97;5121542;27;20043;-77
2023/02/27 07:08:04;;;;;;;5.00;3.15;;;;;;;-1.55;100.00;102233.63;5106044;28;20055;-79
2023/02/27 07:10:31;;;;;;;6.28;3.45;;;;;;;-1.47;100.00;102228.09;5088558;28;20458;-79
2023/02/27 07:25:29;;;;;;;4.45;3.38;;;;;;;-1.47;100.00;102241.84;4916863;29;20048;-79
2023/02/27 07:27:56;;;;;;;6.82;4.68;;;;;;;-1.45;100.00;102241.94;4910320;28;20054;-78
2023/02/27 07:30:22;;;;;;;8.48;4.45;;;;;;;-1.39;100.00;102242.34;5060878;28;20056;-76
2023/02/27 07:32:49;;;;;;;7.25;4.38;;;;;;;-1.30;100.00;102245.53;5114235;27;20040;-78
2023/02/27 07:35:17;;;;;;;5.88;4.70;;;;;;;-1.21;100.00;102251.25;5092403;28;20658;-77
2023/02/27 07:37:43;;;;;;;6.75;3.97;;;;;;;-1.12;100.00;102248.41;5116084;27;20039;-79
2023/02/27 07:40:11;;;;;;;8.77;4.90;;;;;;;-0.90;100.00;102254.88;5107788;28;20090;-84
2023/02/27 07:42:38;;;;;;;5.82;4.22;;;;;;;-0.75;100.00;102244.69;5088507;28;20422;-77
2023/02/27 07:45:05;;;;;;;4.57;3.63;;;;;;;-0.32;100.00;102246.47;5105461;27;20043;-77
2023/02/27 07:47:31;;;;;;;3.25;2.92;;;;;;;-0.13;99.10;102243.31;5096344;28;20035;-79
2023/02/27 07:49:58;;;;;;;5.65;3.92;;;;;;;-0.18;98.17;102236.22;5106273;27;20032;-77
2023/02/27 07:52:25;;;;;;;6.80;3.70;;;;;;;0.07;98.74;102240.25;5085748;28;20503;-77
2023/02/27 07:54:51;;;;;;;8.80;3.80;;;;;;;0.21;96.42;102240.19;5102292;28;20043;-79
2023/02/27 07:57:18;;;;;;;8.90;4.40;;;;;;;-0.04;96.72;102239.63;5102809;28;20056;-80
2023/02/27 07:59:44;;;;;;;4.53;3.63;;;;;;;-0.34;97.39;102246.38;5104780;28;20046;-79
2023/02/27 08:02:12;;;;;;;4.32;3.88;;;;;;;-0.67;99.01;102243.50;5096513;28;20044;-80
2023/02/27 08:04:40;;;;;;;4.22;3.17;;;;;;;-0.85;100.00;102238.06;5101843;28;20046;-79
2023/02/27 08:07:07;;;;;;;6.47;3.65;;;;;;;-1.00;100.00;102241.47;5081097;28;20544;-85
2023/02/27 08:09:33;;;;;;;9.68;4.15;;;;;;;-1.09;100.00;102245.13;5104449;28;20036;-79
2023/02/27 08:12:01;;;;;;;11.95;4.57;;;;;;;-1.13;100.00;102243.13;5101504;27;20040;-80
2023/02/27 08:14:28;;;;;;;6.55;3.60;;;;;;;-1.18;100.00;102241.16;5119690;27;20054;-81
2023/02/27 08:16:54;;;;;;;6.57;3.83;;;;;;;-1.21;100.00;102247.81;5109837;28;20035;-81
2023/02/27 08:19:21;;;;;;;6.10;3.72;;;;;;;-1.21;100.00;102248.69;5104293;28;20042;-78
2023/02/27 08:21:47;;;;;;;5.47;4.57;;;;;;;-1.23;100.00;102245.09;5106808;28;20031;-79
2023/02/27 08:24:14;;;;;;;7.88;4.65;;;;;;;-1.23;100.00;102255.38;5112661;28;20044;-84
2023/02/27 08:26:40;;;;;;;5.28;3.85;;;;;;;-1.18;100.00;102255.69;5113295;28;20031;-79
2023/02/27 08:29:07;;;;;;;10.52;4.65;;;;;;;-1.02;100.00;102257.56;5094225;28;20056;-81
2023/02/27 08:31:34;;;;;;;5.78;3.65;;;;;;;-0.71;100.00;102262.09;5107172;28;20047;-83
2023/02/27 08:34:01;;;;;;;5.88;3.58;;;;;;;-0.35;100.00;102260.94;5106587;28;20036;-79
2023/02/27 08:36:27;;;;;;;7.35;3.67;;;;;;;-0.06;98.84;102261.81;5123477;27;20114;-79
2023/02/27 08:38:54;;;;;;;7.10;3.58;;;;;;;0.10;96.30;102270.47;5090617;28;20048;-79
2023/02/27 08:41:22;;;;;;;6.65;4.47;;;;;;;0.03;95.78;102269.22;5092265;28;20040;-79
2023/02/27 08:43:49;;;;;;;6.88;4.38;;;;;;;-0.12;95.89;102276.00;5094744;28;20044;-76
2023/02/27 08:46:15;;;;;;;7.18;3.92;;;;;;;-0.27;96.20;102274.25;5101687;28;20075;-81
2023/02/27 08:48:42;;;;;;;7.03;3.75;;;;;;;-0.38;97.00;102270.13;5113155;28;20043;-81
2023/02/27 08:51:09;;;;;;;9.30;4.80;;;;;;;-0.47;97.25;102273.06;5109082;28;20039;-78
2023/02/27 08:53:36;;;;;;;7.53;4.68;;;;;;;-0.52;97.83;102274.44;5110315;28;20040;-76
2023/02/27 08:56:02;;;;;;;7.65;4.63;;;;;;;-0.53;98.92;102273.53;5107479;28;20042;-83
2023/02/27 08:58:29;;;;;;;8.55;4.45;;;;;;;-0.55;98.66;102269.09;5103336;28;20039;-79
2023/02/27 09:00:55;;;;;;;10.68;4.47;;;;;;;-0.59;98.88;102270.56;5108991;28;20054;-83
2023/02/27 09:03:27;;;;;;;12.80;5.55;;;;;;;-0.59;99.59;102267.13;5110420;28;20032;-76
2023/02/27 09:05:54;;;;;;;10.25;4.47;;;;;;;-0.57;100.00;102269.00;5103339;28;20044;-78
2023/02/27 09:08:22;;;;;;;11.85;5.60;;;;;;;-0.54;100.00;102271.75;5111279;27;20406;-78
2023/02/27 09:10:48;;;;;;;17.50;5.85;;;;;;;-0.49;100.00;102272.06;5112097;28;20047;-82
2023/02/27 09:13:15;;;;;;;9.00;3.63;;;;;;;-0.40;100.00;102274.31;5113255;28;20135;-84
2023/02/27 09:15:42;;;;;;;12.25;4.90;;;;;;;-0.31;99.74;102280.03;5125317;27;20035;-80
2023/02/27 09:18:08;;;;;;;5.03;3.60;;;;;;;-0.24;99.79;102279.59;5120420;27;20112;-78
2023/02/27 09:20:35;;;;;;;11.10;4.78;;;;;;;-0.19;99.26;102282.47;5097880;28;20036;-77
2023/02/27 09:23:03;;;;;;;12.13;4.80;;;;;;;-0.14;98.87;102280.16;5105386;28;20108;-81
2023/02/27 09:25:30;;;;;;;8.98;4.03;;;;;;;-0.11;99.51;102276.09;5109203;28;20497;-79
2023/02/27 09:27:58;;;;;;;10.77;5.32;;;;;;;0.04;99.29;102273.56;5102324;28;20032;-81
2023/02/27 09:30:24;;;;;;;12.35;4.95;;;;;;;0.24;98.54;102281.59;5094458;28;20482;-79
2023/02/27 09:32:51;;;;;;;10.27;4.20;;;;;;;0.35;98.56;102270.22;5095095;28;20035;-79
2023/02/27 09:35:19;;;;;;;11.10;4.15;;;;;;;0.48;97.76;102280.47;5102804;28;20050;-77
2023/02/27 09:37:47;;;;;;;8.70;4.68;;;;;;;0.73;97.66;102280.97;5110145;28;20046;-79
2023/02/27 09:40:24;;;;;;;7.32;3.58;;;;;;;1.12;95.91;102282.38;5091831;28;20032;-78
2023/02/27 09:42:55;;;;;;;5.15;3.40;;;;;;;1.54;93.31;102281.16;5106770;28;20074;-78
2023/02/27 09:45:37;;;;;;;6.63;2.67;;;;;;;1.94;92.26;102278.13;5111475;28;20093;-76
2023/02/27 09:48:19;;;;;;;6.25;3.28;;;;;;;2.11;89.54;102267.00;5105331;28;20157;-83
2023/02/27 09:50:51;;;;;;;4.88;3.20;;;;;;;2.01;89.01;102272.50;5093544;28;20036;-77
2023/02/27 09:53:26;;;;;;;5.03;2.88;;;;;;;2.02;88.57;102271.69;5102345;28;20139;-81
2023/02/27 09:55:56;;;;;;;4.20;2.75;;;;;;;2.14;88.92;102274.03;5101921;28;20044;-79
2023/02/27 09:58:41;;;;;;;5.68;1.90;;;;;;;2.42;88.07;102268.53;5103726;28;20073;-80
2023/02/27 10:01:34;;;;;;;;;;;;;;;2.70;86.12;102263.88;5102940;28;20031;-80
2023/02/27 10:04:37;;;;;;;8.13;3.92;;;;;;;2.86;84.94;102265.53;5106145;27;19923;-82
2023/02/27 10:07:46;;;;;;;9.05;2.65;;;;;;;3.01;83.87;102276.59;5105464;28;20076;-81
2023/02/27 10:10:59;;;;;;;5.70;3.38;;;;;;;3.10;82.84;102274.47;5105903;28;20044;-77
2023/02/27 10:13:47;;;;;;;4.28;2.70;;;;;;;3.30;83.04;102270.22;5092867;28;20060;-79
2023/02/27 10:16:19;;;;;;;7.30;2.58;;;;;;;3.49;81.29;102271.06;5106726;28;20062;-77
2023/02/27 10:19:06;;;;;;;4.38;2.22;;;;;;;3.56;78.84;102269.66;5106063;28;20043;-79
2023/02/27 10:21:50;;;;;;;4.15;2.75;;;;;;;3.53;79.57;102267.81;5106146;28;20036;-78
2023/02/27 10:24:27;;;;;;;3.83;2.13;;;;;;;3.75;78.49;102266.22;5093462;28;20134;-79
2023/02/27 10:26:58;;;;;;;6.80;2.03;;;;;;;3.81;77.40;102272.53;5108627;28;20050;-77
2023/02/27 10:29:33;;;;;;;3.45;2.03;;;;;;;4.05;78.56;102270.97;5107986;28;20068;-80
2023/02/27 10:32:08;;;;;;;2.58;2.17;;;;;;;4.06;76.19;102262.41;5082940;28;20506;-82
2023/02/27 10:34:35;;;;;;;6.75;2.30;;;;;;;4.07;77.08;102272.81;5099439;27;20047;-78
2023/02/27 10:37:05;;;;;;;7.00;2.53;;;;;;;4.22;77.35;102277.78;5109792;28;20048;-81
2023/02/27 10:39:46;;;;;;;2.53;2.17;;;;;;;4.44;76.01;102276.97;5085796;28;20040;-80
2023/02/27 10:42:16;;;;;;;5.03;2.75;;;;;;;4.58;72.36;102276.72;5101159;28;20048;-78
2023/02/27 10:44:43;;;;;;;2.95;2.47;;;;;;;4.70;72.65;102274.59;5106426;28;20738;-78
2023/02/27 10:47:16;;;;;;;5.13;2.42;;;;;;;4.69;72.08;102282.31;5103228;27;20047;-82
2023/02/27 10:49:43;;;;;;;2.50;1.77;;;;;;;4.43;70.52;102275.25;5103771;28;20040;-79
2023/02/27 10:52:16;;;;;;;5.82;1.80;;;;;;;4.49;72.62;102279.78;5105247;28;20085;-80
2023/02/27 10:54:44;;;;;;;6.53;1.95;;;;;;;4.45;71.67;102278.75;5096840;28;20036;-80
2023/02/27 10:57:28;;;;;;;3.35;2.50;;;;;;;4.33;72.28;102274.75;5107865;27;20126;-79
2023/02/27 11:00:06;;;;;;;6.30;1.92;;;;;;;4.18;70.68;102270.69;5103641;28;20409;-78
2023/02/27 11:02:39;;;;;;;8.20;2.78;;;;;;;3.88;71.98;102262.47;5103389;28;20051;-78
2023/02/27 11:05:26;;;;;;;5.78;2.58;;;;;;;3.68;73.63;102270.22;5103378;28;20161;-79
2023/02/27 11:07:52;;;;;;;5.18;1.73;;;;;;;3.68;73.26;102262.47;5105178;28;20032;-78
2023/02/27 11:10:30;;;;;;;4.68;2.10;;;;;;;3.61;73.53;102268.16;5086904;28;20077;-79
2023/02/27 11:13:00;;;;;;;7.07;2.00;;;;;;;3.37;74.54;102281.75;5097998;28;20055;-77
2023/02/27 11:15:31;;;;;;;3.45;1.42;;;;;;;3.05;75.94;102268.19;5097453;28;20481;-81
2023/02/27 11:18:21;;;;;;;3.00;1.50;;;;;;;2.84;76.97;102265.44;5111638;27;20033;-85
2023/02/27 11:20:49;;;;;;;6.97;2.42;;;;;;;2.67;77.55;102256.84;5098420;28;20039;-80
2023/02/27 11:23:24;;;;;;;3.65;1.90;;;;;;;2.57;78.10;102260.69;5090436;28;20055;-78
2023/02/27 11:25:51;;;;;;;2.78;1.90;;;;;;;2.55;78.88;102261.41;5107118;28;20371;-79
2023/02/27 11:28:30;;;;;;;6.22;1.40;;;;;;;2.52;78.22;102253.53;5093630;28;20055;-79
2023/02/27 11:31:04;;;;;;;2.33;1.55;;;;;;;2.53;78.92;102255.28;5106506;28;20051;-80
2023/02/27 11:33:50;;;;;;;4.28;1.80;;;;;;;2.56;77.46;102251.16;5097495;28;20057;-78
2023/02/27 11:36:17;;;;;;;3.97;1.52;;;;;;;2.58;77.34;102256.38;5096365;28;20131;-79
2023/02/27 11:38:53;;;;;;;2.88;1.30;;;;;;;2.57;77.56;102244.28;5089544;28;20488;-78
2023/02/27 11:41:21;;;;;;;7.28;1.83;;;;;;;2.69;77.77;102242.31;5106026;28;20055;-79
2023/02/27 11:43:54;;;;;;;7.18;1.70;;;;;;;2.85;77.61;102259.44;5098193;28;20040;-84
2023/02/27 11:46:24;;;;;;;5.45;2.22;;;;;;;3.02;76.83;102249.91;5096108;28;20104;-81
2023/02/27 11:49:03;;;;;;;4.65;2.00;;;;;;;3.19;75.69;102242.94;5085489;28;20050;-83
2023/02/27 11:52:08;;;;;;;2.33;1.20;;;;;;;3.43;74.03;102239.75;5107796;28;20136;-80
2023/02/27 11:54:53;;;;;;;5.65;1.08;;;;;;;3.70;71.47;102240.09;5088592;28;20040;-80
2023/02/27 11:57:32;;;;;;;2.13;1.50;;;;;;;3.76;70.67;102253.31;5105072;28;20043;-76
2023/02/27 12:00:24;;;;;;;4.03;1.67;;;;;;;3.92;70.13;102235.88;5091918;28;20463;-81
2023/02/27 12:03:05;;;;;;;4.78;1.98;;;;;;;4.23;67.84;102240.66;5104694;28;20046;-80
2023/02/27 12:05:38;;;;;;;2.50;1.58;;;;;;;4.43;67.89;102243.22;5092631;28;20390;-78
2023/02/27 12:08:26;;;;;;;2.03;1.23;;;;;;;4.66;66.06;102241.59;5082046;28;20036;-77